Time;durP1;ratioP1;P1;durP2;ratioP2;P2;SDS_P1;SDS_P2;PMS_P1;PMS_P2;Temp;Humidity;BMP_temperature;BMP_pressure;BME280_temperature;BME280_humidity;BME280_pressure;Samples;Min_cycle;Max_cycle;Signal;HPM_P1;HPM_P2
2023/02/22 00:03:31;;;;;;;27.10;11.80;;;;;;;4.17;83.74;98792.27;221714;1278;25349;-79
2023/02/22 00:08:35;;;;;;;23.10;9.60;;;;;;;4.09;83.81;98798.30;221605;1277;22754;-78
2023/02/22 00:13:44;;;;;;;25.50;9.30;;;;;;;3.98;83.83;98802.33;221575;1278;22544;-79
2023/02/22 00:18:49;;;;;;;19.10;7.10;;;;;;;3.84;83.81;98802.81;221766;1274;24231;-79
2023/02/22 00:23:57;;;;;;;17.90;7.40;;;;;;;3.75;84.12;98802.42;221714;1276;22542;-78
2023/02/22 00:28:59;;;;;;;17.30;6.30;;;;;;;3.69;84.11;98803.15;221715;1274;25351;-79
2023/02/22 00:34:03;;;;;;;18.70;7.20;;;;;;;3.65;84.14;98803.91;221688;1274;22549;-78
2023/02/22 00:39:06;;;;;;;20.70;7.90;;;;;;;3.61;84.33;98804.69;221494;1278;25064;-78
2023/02/22 00:44:10;;;;;;;20.00;9.00;;;;;;;3.54;84.34;98807.20;221687;1278;24265;-79
2023/02/22 00:49:16;;;;;;;25.80;10.30;;;;;;;3.49;84.50;98809.58;221667;1274;22546;-79
2023/02/22 00:54:20;;;;;;;26.80;11.60;;;;;;;3.46;84.72;98811.61;221534;1276;23406;-79
2023/02/22 00:59:23;;;;;;;27.20;13.20;;;;;;;3.43;84.84;98808.93;221624;1275;22590;-79
2023/02/22 01:04:29;;;;;;;29.70;14.40;;;;;;;3.38;85.02;98805.96;221440;1278;24350;-78
2023/02/22 01:09:33;;;;;;;31.30;14.80;;;;;;;3.31;84.95;98807.09;221631;1274;24394;-79
2023/02/22 01:14:38;;;;;;;30.50;15.50;;;;;;;3.24;85.19;98810.50;221660;1271;25300;-79
2023/02/22 01:19:41;;;;;;;28.10;15.20;;;;;;;3.20;85.34;98806.69;221582;1272;22536;-78
2023/02/22 01:24:45;;;;;;;28.00;15.60;;;;;;;3.17;85.29;98805.61;221811;1254;22533;-79
2023/02/22 01:29:49;;;;;;;28.00;15.90;;;;;;;3.12;85.42;98809.50;221635;1276;22572;-79
2023/02/22 01:34:55;;;;;;;34.30;15.70;;;;;;;3.11;85.52;98813.15;221657;1271;23771;-79
2023/02/22 01:39:58;;;;;;;36.40;15.80;;;;;;;3.12;85.65;98805.38;221589;1272;25370;-79
2023/02/22 01:45:29;;;;;;;27.10;13.70;;;;;;;3.12;85.60;98804.72;221577;1278;22542;-78
2023/02/22 01:50:36;;;;;;;26.90;12.80;;;;;;;3.09;85.78;98798.52;221665;1255;25340;-79
2023/02/22 01:55:42;;;;;;;24.20;12.10;;;;;;;3.06;85.91;98802.79;221608;1276;22546;-79
2023/02/22 02:00:44;;;;;;;28.70;12.70;;;;;;;3.06;85.73;98804.38;221681;1275;24367;-79
2023/02/22 02:05:51;;;;;;;28.80;11.70;;;;;;;3.06;85.79;98800.15;221625;1278;22566;-79
2023/02/22 02:10:56;;;;;;;24.40;12.90;;;;;;;3.03;85.79;98798.69;221712;1274;22532;-79
2023/02/22 02:15:59;;;;;;;32.00;13.30;;;;;;;2.97;85.56;98800.31;221580;1277;22553;-78
2023/02/22 02:21:14;;;;;;;34.10;15.20;;;;;;;2.90;85.87;98796.82;221783;1278;24396;-78
2023/02/22 02:26:56;;;;;;;26.90;14.40;;;;;;;2.84;85.83;98802.55;221614;1273;25425;-78
2023/02/22 02:32:26;;;;;;;31.20;15.50;;;;;;;2.79;85.90;98804.68;221163;1281;22532;-78
2023/02/22 02:37:55;;;;;;;36.30;20.10;;;;;;;2.77;85.95;98804.58;220874;1281;22815;-77
2023/02/22 02:43:28;;;;;;;36.30;20.80;;;;;;;2.74;86.13;98804.35;221118;1281;25354;-79
2023/02/22 02:48:33;;;;;;;36.00;22.40;;;;;;;2.72;86.16;98812.85;221088;1281;22642;-79
2023/02/22 02:53:42;;;;;;;37.50;22.20;;;;;;;2.73;86.37;98807.92;220973;1274;22533;-79
2023/02/22 02:58:47;;;;;;;35.50;21.60;;;;;;;2.73;86.27;98807.64;221127;1274;25275;-78
2023/02/22 03:04:37;;;;;;;37.30;21.80;;;;;;;2.75;86.57;98807.13;221509;1277;22537;-79
2023/02/22 03:10:20;;;;;;;42.00;20.70;;;;;;;2.77;86.74;98806.30;221503;1278;23510;-79
2023/02/22 03:16:05;;;;;;;38.60;20.20;;;;;;;2.78;86.71;98804.33;221749;1270;22663;-79
2023/02/22 03:21:24;;;;;;;38.60;19.20;;;;;;;2.73;86.76;98807.89;221464;1278;22598;-78
2023/02/22 03:26:35;;;;;;;39.20;21.60;;;;;;;2.63;86.50;98811.55;221647;1274;22659;-78
2023/02/22 03:32:08;;;;;;;41.70;22.70;;;;;;;2.54;86.80;98813.95;221683;1275;25514;-79
2023/02/22 03:37:18;;;;;;;43.10;24.60;;;;;;;2.47;87.00;98820.31;221594;1276;22657;-78
2023/02/22 03:42:25;;;;;;;38.90;22.80;;;;;;;2.38;86.89;98821.95;221609;1274;22536;-81
2023/02/22 03:47:38;;;;;;;44.40;26.30;;;;;;;2.26;86.82;98820.42;221664;1278;25515;-79
2023/02/22 03:52:44;;;;;;;36.90;20.50;;;;;;;2.18;86.76;98819.38;221748;1274;25423;-79
2023/02/22 03:58:03;;;;;;;36.60;20.10;;;;;;;2.08;86.57;98825.16;221687;1275;24113;-79
2023/02/22 04:03:06;;;;;;;41.70;22.40;;;;;;;1.97;86.80;98825.89;221782;1274;22546;-79
2023/02/22 04:08:12;;;;;;;42.80;23.20;;;;;;;1.90;87.01;98822.86;221601;1276;22530;-79
2023/02/22 04:13:18;;;;;;;40.00;22.50;;;;;;;1.86;87.31;98831.59;221683;1278;23747;-79
2023/02/22 04:18:27;;;;;;;40.30;23.60;;;;;;;1.81;87.30;98827.17;221552;1274;22947;-79
2023/02/22 04:23:31;;;;;;;40.40;23.80;;;;;;;1.73;87.52;98830.29;221665;1278;25503;-79
2023/02/22 04:28:33;;;;;;;38.50;22.70;;;;;;;1.66;87.67;98828.24;221526;1278;22529;-78
2023/02/22 04:33:45;;;;;;;37.30;23.30;;;;;;;1.60;87.81;98823.73;221666;1278;22559;-79
2023/02/22 04:38:51;;;;;;;44.30;23.80;;;;;;;1.52;87.83;98823.89;221584;1278;22576;-78
2023/02/22 04:43:54;;;;;;;36.20;21.80;;;;;;;1.42;87.66;98827.51;221696;1278;24341;-78
2023/02/22 04:49:00;;;;;;;44.00;25.20;;;;;;;1.32;87.32;98823.89;221557;1278;22534;-77
2023/02/22 04:54:05;;;;;;;96.80;62.80;;;;;;;1.22;87.66;98828.84;221544;1274;22532;-78
2023/02/22 04:59:16;;;;;;;132.80;69.70;;;;;;;1.11;87.46;98829.27;221695;1277;25310;-78
2023/02/22 05:04:21;;;;;;;200.00;65.10;;;;;;;1.06;88.07;98830.73;221740;1274;22753;-77
2023/02/22 05:09:26;;;;;;;138.40;48.10;;;;;;;1.03;87.72;98831.85;221587;1278;22543;-77
2023/02/22 05:14:29;;;;;;;148.20;52.70;;;;;;;0.98;88.26;98825.84;221555;1277;22680;-78
2023/02/22 05:19:35;;;;;;;126.30;50.90;;;;;;;0.91;87.79;98824.70;221645;1273;22546;-78
2023/02/22 05:24:37;;;;;;;111.00;46.50;;;;;;;0.86;88.21;98822.17;221606;1274;22529;-80
2023/02/22 05:29:40;;;;;;;84.30;39.10;;;;;;;0.77;88.19;98831.56;221642;1277;22459;-78
2023/02/22 05:34:44;;;;;;;68.10;33.90;;;;;;;0.72;88.42;98837.17;221603;1278;25576;-79
2023/02/22 05:39:47;;;;;;;85.10;33.20;;;;;;;0.72;88.73;98839.30;221711;1278;22533;-78
2023/02/22 05:44:49;;;;;;;73.30;32.80;;;;;;;0.72;88.99;98837.20;221572;1277;22549;-78
2023/02/22 05:49:55;;;;;;;68.50;32.20;;;;;;;0.75;89.07;98839.08;221499;1274;22520;-78
2023/02/22 05:54:59;;;;;;;68.10;32.10;;;;;;;0.77;89.26;98844.74;221597;1278;25260;-78
2023/02/22 06:00:05;;;;;;;70.50;34.00;;;;;;;0.76;89.12;98847.25;221558;1274;22589;-78
2023/02/22 06:05:30;;;;;;;54.70;31.30;;;;;;;0.76;89.33;98859.88;221003;1280;24414;-78
2023/02/22 06:10:35;;;;;;;68.50;30.70;;;;;;;0.74;88.91;98863.90;221210;1261;22625;-78
2023/02/22 06:15:59;;;;;;;90.00;50.30;;;;;;;0.76;89.00;98868.20;221120;1277;22599;-78
2023/02/22 06:21:03;;;;;;;121.10;44.90;;;;;;;0.79;88.92;98873.55;221095;1277;25423;-79
2023/02/22 06:26:06;;;;;;;115.80;45.90;;;;;;;0.81;88.84;98876.84;221314;1273;25336;-78
2023/02/22 06:31:10;;;;;;;122.60;52.00;;;;;;;0.88;88.51;98888.23;221123;1281;22627;-78
2023/02/22 06:36:12;;;;;;;101.50;44.00;;;;;;;0.97;89.26;98891.11;221576;1272;24279;-78
2023/02/22 06:41:17;;;;;;;113.90;53.70;;;;;;;1.13;89.42;98898.45;221914;1272;24295;-77
2023/02/22 06:46:30;;;;;;;106.70;58.20;;;;;;;1.35;89.51;98905.48;222141;1270;22547;-77
2023/02/22 06:51:36;;;;;;;92.20;51.20;;;;;;;1.54;89.24;98912.81;221853;1270;24265;-77
2023/02/22 06:56:39;;;;;;;90.50;49.60;;;;;;;1.65;89.19;98914.59;221684;1278;25480;-77
2023/02/22 07:01:43;;;;;;;90.20;51.70;;;;;;;1.75;88.94;98920.92;222116;1270;22584;-77
2023/02/22 07:06:51;;;;;;;87.40;51.80;;;;;;;1.93;89.33;98924.61;222220;1257;22508;-78
2023/02/22 07:11:57;;;;;;;77.40;44.80;;;;;;;2.11;89.40;98924.63;223187;1257;22704;-78
2023/02/22 07:16:59;;;;;;;74.80;42.20;;;;;;;2.28;89.36;98925.05;222459;1257;23933;-81
2023/02/22 07:22:01;;;;;;;70.00;41.00;;;;;;;2.46;89.28;98923.13;222142;1267;22531;-80
2023/02/22 07:27:04;;;;;;;60.00;36.80;;;;;;;2.63;89.26;98925.96;221999;1270;22469;-76
2023/02/22 07:32:06;;;;;;;58.80;33.20;;;;;;;2.84;89.37;98917.52;221826;1262;25317;-79
2023/02/22 07:37:10;;;;;;;62.40;37.40;;;;;;;3.12;89.41;98919.38;222101;1262;24282;-78
2023/02/22 07:42:13;;;;;;;51.90;29.70;;;;;;;3.40;89.72;98919.73;221888;1263;25288;-78
2023/02/22 07:47:16;;;;;;;49.20;29.90;;;;;;;3.71;89.69;98925.05;221551;1272;22553;-78
2023/02/22 07:52:19;;;;;;;45.60;28.30;;;;;;;3.95;89.18;98924.45;221738;1272;24237;-77
2023/02/22 07:57:22;;;;;;;52.20;30.70;;;;;;;4.10;88.72;98923.23;221669;1258;22555;-78
2023/02/22 08:02:25;;;;;;;45.90;30.10;;;;;;;4.22;88.61;98920.48;221724;1270;22481;-78
2023/02/22 08:07:27;;;;;;;41.40;24.70;;;;;;;4.44;88.80;98922.36;221753;1272;22556;-78
2023/02/22 08:12:30;;;;;;;46.10;27.90;;;;;;;4.63;88.32;98924.38;221743;1262;24225;-80
2023/02/22 08:17:33;;;;;;;50.10;28.80;;;;;;;4.78;87.92;98923.19;221579;1274;22476;-78
2023/02/22 08:22:35;;;;;;;286.10;49.70;;;;;;;4.87;87.72;98928.06;221558;1270;22596;-78
2023/02/22 08:27:38;;;;;;;225.90;45.40;;;;;;;4.98;87.68;98925.92;221736;1268;24285;-78
2023/02/22 08:32:45;;;;;;;40.50;23.80;;;;;;;5.14;87.72;98934.35;221709;1263;22542;-78
2023/02/22 08:37:51;;;;;;;40.30;22.20;;;;;;;5.31;87.63;98940.66;221613;1258;22581;-78
2023/02/22 08:42:54;;;;;;;44.80;25.70;;;;;;;5.40;87.15;98940.09;221718;1270;25342;-78
2023/02/22 08:47:58;;;;;;;79.50;30.20;;;;;;;5.55;87.00;98943.33;221749;1254;22624;-79
2023/02/22 08:53:02;;;;;;;42.80;25.80;;;;;;;5.67;86.98;98942.33;221728;1263;25157;-77
2023/02/22 08:58:09;;;;;;;43.60;25.90;;;;;;;5.82;86.95;98947.10;221607;1273;22543;-78
2023/02/22 09:03:13;;;;;;;44.20;27.50;;;;;;;5.99;86.99;98940.55;221567;1261;24256;-79
2023/02/22 09:08:16;;;;;;;38.40;23.20;;;;;;;6.09;86.53;98943.36;221664;1277;22733;-77
2023/02/22 09:13:18;;;;;;;41.70;22.50;;;;;;;6.26;86.52;98943.80;221624;1274;22547;-78
2023/02/22 09:18:21;;;;;;;38.20;21.40;;;;;;;6.45;86.85;98945.11;221566;1274;23971;-77
2023/02/22 09:23:26;;;;;;;48.30;20.20;;;;;;;6.60;86.66;98947.46;221928;1271;23081;-76
2023/02/22 09:28:30;;;;;;;35.80;18.10;;;;;;;6.78;86.21;98944.42;222773;1260;25231;-76
2023/02/22 09:33:34;;;;;;;28.40;15.40;;;;;;;6.97;85.60;98950.86;224143;1260;22582;-77
2023/02/22 09:38:36;;;;;;;28.00;15.00;;;;;;;7.13;85.49;98945.08;224567;1258;22778;-78
2023/02/22 09:43:48;;;;;;;29.00;15.10;;;;;;;7.30;84.66;98941.22;224737;1259;22503;-78
2023/02/22 09:49:01;;;;;;;33.20;14.60;;;;;;;7.40;84.37;98940.08;224415;1271;25404;-78
2023/02/22 09:54:13;;;;;;;26.20;13.20;;;;;;;7.58;83.72;98939.71;224303;1265;23787;-80
2023/02/22 09:59:28;;;;;;;30.00;14.70;;;;;;;7.82;83.99;98936.73;223258;1262;22574;-78
2023/02/22 10:04:41;;;;;;;26.50;13.90;;;;;;;8.12;83.72;98935.59;222053;1271;24250;-79
2023/02/22 10:09:48;;;;;;;25.40;12.30;;;;;;;8.31;82.59;98932.61;222849;1268;22597;-80
2023/02/22 10:15:27;;;;;;;25.80;12.30;;;;;;;8.42;82.10;98926.42;222034;1270;25425;-78
2023/02/22 10:21:01;;;;;;;29.60;10.40;;;;;;;8.59;81.71;98920.71;222087;1272;22506;-78
2023/02/22 10:26:45;;;;;;;26.90;9.90;;;;;;;8.67;80.75;98920.80;223348;1270;23227;-79
2023/02/22 10:31:56;;;;;;;24.80;10.20;;;;;;;8.66;79.76;98920.05;221022;1276;25339;-78
2023/02/22 10:37:24;;;;;;;26.50;11.70;;;;;;;8.72;79.48;98921.52;221743;1277;22536;-79
2023/02/22 10:42:28;;;;;;;23.60;11.30;;;;;;;8.78;79.68;98917.66;222133;1262;22475;-78
2023/02/22 10:47:32;;;;;;;52.10;13.50;;;;;;;9.08;80.19;98914.54;223036;1278;22543;-78
2023/02/22 10:52:34;;;;;;;22.10;8.70;;;;;;;9.36;79.95;98909.27;222016;1261;23053;-76
2023/02/22 10:57:41;;;;;;;17.90;8.10;;;;;;;9.55;78.58;98906.93;221958;1271;22669;-77
2023/02/22 11:02:57;;;;;;;19.80;8.30;;;;;;;9.66;77.74;98902.95;222033;1259;22537;-77
2023/02/22 11:08:21;;;;;;;22.20;7.90;;;;;;;9.69;77.23;98901.33;222033;1271;22603;-76
2023/02/22 11:13:30;;;;;;;16.10;4.60;;;;;;;9.52;75.81;98898.25;221667;1268;419598;-77
2023/02/22 11:18:34;;;;;;;14.30;5.00;;;;;;;9.39;75.78;98895.69;221926;1268;25293;-77
2023/02/22 11:23:41;;;;;;;11.90;4.30;;;;;;;9.45;75.36;98893.06;221854;1273;22571;-78
2023/02/22 11:28:54;;;;;;;18.40;5.90;;;;;;;9.60;74.57;98886.61;221808;1260;22569;-78
2023/02/22 11:34:00;;;;;;;20.30;6.30;;;;;;;9.75;74.67;98886.38;221941;1277;22593;-77
2023/02/22 11:39:10;;;;;;;15.70;6.00;;;;;;;9.83;74.53;98879.33;221849;1274;22536;-77
2023/02/22 11:44:20;;;;;;;15.80;6.80;;;;;;;9.91;73.50;98879.29;221798;1258;24160;-77
2023/02/22 11:49:32;;;;;;;15.40;5.90;;;;;;;9.86;73.15;98873.22;221872;1272;22558;-77
2023/02/22 11:54:45;;;;;;;22.00;6.80;;;;;;;9.82;72.93;98874.00;221772;1275;22544;-77
2023/02/22 12:00:23;;;;;;;20.10;7.60;;;;;;;9.73;72.57;98869.90;221909;1278;25407;-77
2023/02/22 12:05:39;;;;;;;20.00;6.40;;;;;;;9.74;72.59;98869.66;221790;1273;22500;-76
2023/02/22 12:10:59;;;;;;;14.10;6.00;;;;;;;9.85;72.30;98874.09;221797;1273;26512;-78
2023/02/22 12:16:27;;;;;;;14.90;5.90;;;;;;;9.96;72.35;98870.02;221693;1272;25385;-77
2023/02/22 12:21:35;;;;;;;17.70;6.00;;;;;;;10.06;71.69;98870.74;221754;1274;25365;-77
2023/02/22 12:26:47;;;;;;;19.10;7.00;;;;;;;10.06;71.60;98868.23;221457;1278;24208;-77
2023/02/22 12:32:18;;;;;;;16.00;6.60;;;;;;;10.04;70.96;98872.58;221657;1270;25356;-76
2023/02/22 12:37:27;;;;;;;19.90;6.90;;;;;;;9.94;70.71;98873.73;221777;1268;22570;-77
2023/02/22 12:42:53;;;;;;;31.10;7.50;;;;;;;9.86;70.31;98868.17;221768;1275;25385;-77
2023/02/22 12:48:31;;;;;;;21.20;6.90;;;;;;;9.74;70.09;98867.12;221992;1256;22541;-81
2023/02/22 12:54:00;;;;;;;16.50;6.40;;;;;;;9.68;70.14;98860.02;222914;1278;23010;-82
2023/02/22 12:59:38;;;;;;;23.00;7.50;;;;;;;9.82;70.26;98852.86;222289;1275;25269;-80
2023/02/22 13:04:46;;;;;;;21.30;6.70;;;;;;;9.93;69.82;98851.26;222091;1278;22622;-81
2023/02/22 13:10:15;;;;;;;17.70;6.90;;;;;;;9.98;69.87;98854.77;221850;1274;23770;-81
2023/02/22 13:15:52;;;;;;;20.00;6.90;;;;;;;10.05;69.89;98849.89;223509;1272;22546;-80
2023/02/22 13:21:25;;;;;;;15.90;7.30;;;;;;;10.12;69.93;98850.30;222703;1254;25007;-78
2023/02/22 13:26:45;;;;;;;16.90;7.00;;;;;;;10.12;69.36;98848.21;222423;1270;22537;-76
2023/02/22 13:32:03;;;;;;;21.40;7.40;;;;;;;10.07;69.36;98846.11;221788;1267;22695;-76
2023/02/22 13:37:40;;;;;;;15.50;7.40;;;;;;;10.02;69.12;98847.25;221889;1271;22572;-76
2023/02/22 13:43:26;;;;;;;16.30;6.90;;;;;;;9.95;69.03;98849.21;221806;1276;23263;-76
2023/02/22 13:48:57;;;;;;;17.00;7.20;;;;;;;10.07;69.00;98844.79;221789;1270;22567;-78
2023/02/22 13:54:45;;;;;;;20.70;7.80;;;;;;;10.23;68.67;98836.50;221753;1270;23490;-76
2023/02/22 13:59:48;;;;;;;22.00;9.20;;;;;;;10.30;68.77;98835.40;221781;1270;22639;-77
2023/02/22 14:04:51;;;;;;;15.80;7.70;;;;;;;10.33;68.56;98837.67;221871;1277;22625;-76
2023/02/22 14:09:56;;;;;;;18.00;7.90;;;;;;;10.32;68.41;98838.93;221809;1262;22557;-77
2023/02/22 14:15:26;;;;;;;19.70;8.20;;;;;;;10.25;68.40;98845.22;221636;1278;25281;-76
2023/02/22 14:20:37;;;;;;;27.60;9.40;;;;;;;10.15;68.32;98841.89;222123;1270;22555;-76
2023/02/22 14:25:41;;;;;;;21.30;8.80;;;;;;;10.10;68.41;98843.36;222909;1270;22611;-77
2023/02/22 14:30:52;;;;;;;22.50;8.50;;;;;;;10.05;68.47;98840.27;223080;1270;23389;-78
2023/02/22 14:35:55;;;;;;;22.90;9.20;;;;;;;9.99;68.16;98840.98;223065;1255;23698;-78
2023/02/22 14:40:59;;;;;;;25.30;9.70;;;;;;;9.81;67.70;98843.66;222632;1264;22557;-75
2023/02/22 14:46:04;;;;;;;24.40;9.40;;;;;;;9.68;68.54;98844.12;222793;1270;22569;-76
2023/02/22 14:51:21;;;;;;;19.10;8.10;;;;;;;9.64;68.33;98848.33;222764;1263;24269;-75
2023/02/22 14:56:39;;;;;;;20.10;8.40;;;;;;;9.50;68.48;98849.58;222946;1254;22539;-72
2023/02/22 15:01:45;;;;;;;16.80;8.30;;;;;;;9.30;67.89;98847.06;222752;1275;22540;-79
2023/02/22 15:07:34;;;;;;;20.20;9.00;;;;;;;9.03;67.97;98851.42;221734;1276;24260;-80
2023/02/22 15:13:07;;;;;;;20.60;9.90;;;;;;;8.81;68.61;98843.61;221695;1278;22533;-79
2023/02/22 15:18:22;;;;;;;22.40;9.50;;;;;;;8.65;69.09;98846.11;221615;1276;22552;-78
2023/02/22 15:23:32;;;;;;;21.80;9.30;;;;;;;8.55;69.16;98848.48;222072;1274;24235;-78
2023/02/22 15:28:40;;;;;;;21.90;9.40;;;;;;;8.43;68.83;98848.23;221821;1270;22617;-79
2023/02/22 15:33:51;;;;;;;16.40;7.40;;;;;;;8.31;69.32;98849.05;221791;1270;22649;-80
2023/02/22 15:38:57;;;;;;;16.20;7.10;;;;;;;8.18;69.75;98850.87;223982;1253;22683;-80
2023/02/22 15:44:07;;;;;;;20.00;7.80;;;;;;;7.99;69.67;98847.39;221730;1277;22578;-79
2023/02/22 15:49:32;;;;;;;18.40;7.60;;;;;;;7.79;70.14;98846.50;222002;1272;22273;-80
2023/02/22 15:54:51;;;;;;;16.20;7.30;;;;;;;7.54;69.99;98843.42;221845;1279;25843;-80
2023/02/22 15:59:56;;;;;;;22.20;8.50;;;;;;;7.31;70.30;98846.08;221568;1275;25246;-80
2023/02/22 16:05:06;;;;;;;20.20;8.60;;;;;;;7.14;71.24;98847.80;221463;1272;25368;-80
2023/02/22 16:10:34;;;;;;;17.90;8.70;;;;;;;6.96;71.51;98846.74;221381;1280;22543;-79
2023/02/22 16:15:38;;;;;;;24.00;10.90;;;;;;;6.73;71.96;98849.16;221455;1277;22623;-79
2023/02/22 16:20:40;;;;;;;31.40;13.20;;;;;;;6.52;72.19;98850.69;221488;1279;22536;-79
2023/02/22 16:25:43;;;;;;;28.90;13.30;;;;;;;6.32;71.99;98852.26;221503;1278;25377;-80
2023/02/22 16:30:56;;;;;;;30.70;13.60;;;;;;;6.13;72.29;98852.91;221461;1273;22529;-80
2023/02/22 16:36:03;;;;;;;27.40;13.10;;;;;;;5.94;72.09;98860.77;221671;1275;22548;-80
2023/02/22 16:41:06;;;;;;;29.80;12.90;;;;;;;5.76;72.65;98863.59;221522;1277;22546;-79
2023/02/22 16:46:08;;;;;;;36.90;16.70;;;;;;;5.60;72.94;98863.71;221618;1278;24410;-79
2023/02/22 16:51:23;;;;;;;37.00;17.40;;;;;;;5.44;72.73;98865.02;221552;1277;25472;-79
2023/02/22 16:56:28;;;;;;;37.10;19.00;;;;;;;5.28;73.06;98868.34;221620;1277;22499;-79
2023/02/22 17:01:32;;;;;;;43.40;23.20;;;;;;;5.14;73.16;98869.52;221512;1272;22627;-79
2023/02/22 17:06:36;;;;;;;34.60;17.50;;;;;;;5.03;73.11;98874.46;221405;1275;22530;-78
2023/02/22 17:11:40;;;;;;;39.90;18.70;;;;;;;4.96;73.44;98875.86;221466;1279;22547;-79
2023/02/22 17:16:45;;;;;;;37.90;17.60;;;;;;;4.88;73.48;98878.02;221657;1275;25322;-79
2023/02/22 17:21:48;;;;;;;35.40;18.00;;;;;;;4.79;73.61;98877.36;221473;1275;22678;-78
2023/02/22 17:26:51;;;;;;;35.20;16.70;;;;;;;4.70;73.51;98882.09;221490;1272;25337;-78
2023/02/22 17:31:54;;;;;;;36.00;16.60;;;;;;;4.61;73.91;98885.37;221938;1275;22665;-78
2023/02/22 17:36:57;;;;;;;33.30;18.60;;;;;;;4.51;73.88;98888.21;221291;1275;22540;-79
2023/02/22 17:41:59;;;;;;;85.90;45.50;;;;;;;4.41;74.05;98883.98;221373;1279;22533;-78
2023/02/22 17:47:08;;;;;;;47.90;21.40;;;;;;;4.30;74.30;98881.39;221432;1279;22540;-79
2023/02/22 17:52:14;;;;;;;50.80;23.30;;;;;;;4.17;74.47;98884.38;221423;1275;23291;-79
2023/02/22 17:57:19;;;;;;;42.20;22.20;;;;;;;4.05;74.58;98887.10;221323;1272;22965;-79
2023/02/22 18:02:25;;;;;;;49.10;23.20;;;;;;;3.93;74.71;98887.01;221413;1277;22560;-79
2023/02/22 18:07:31;;;;;;;45.50;23.10;;;;;;;3.82;74.99;98890.08;221333;1275;22542;-79
2023/02/22 18:12:33;;;;;;;48.50;23.80;;;;;;;3.72;75.16;98890.34;221704;1275;24294;-79
2023/02/22 18:17:46;;;;;;;48.70;25.40;;;;;;;3.65;75.19;98889.27;221403;1278;24410;-79
2023/02/22 18:22:50;;;;;;;51.20;26.80;;;;;;;3.63;75.47;98894.83;221617;1257;22541;-78
2023/02/22 18:27:53;;;;;;;59.00;29.90;;;;;;;3.67;75.80;98895.73;221249;1279;25459;-78
2023/02/22 18:32:56;;;;;;;64.10;33.80;;;;;;;3.74;75.92;98896.77;221462;1275;24274;-78
2023/02/22 18:37:59;;;;;;;71.00;34.00;;;;;;;3.86;76.08;98893.55;221361;1278;22631;-79
2023/02/22 18:43:02;;;;;;;73.10;37.80;;;;;;;3.93;75.78;98892.89;221619;1279;22593;-78
2023/02/22 18:48:05;;;;;;;79.20;37.60;;;;;;;3.98;75.81;98896.16;221428;1274;22677;-79
2023/02/22 18:53:07;;;;;;;81.50;39.70;;;;;;;4.03;76.04;98892.67;221544;1276;25442;-79
2023/02/22 18:58:09;;;;;;;77.90;40.10;;;;;;;4.07;76.05;98889.70;221505;1278;24207;-78
2023/02/22 19:03:11;;;;;;;76.30;41.70;;;;;;;4.09;76.20;98883.02;221623;1278;22585;-79
2023/02/22 19:08:14;;;;;;;76.80;41.90;;;;;;;4.11;76.36;98880.72;221559;1275;22727;-80
2023/02/22 19:13:19;;;;;;;79.10;41.70;;;;;;;4.09;76.30;98878.30;221588;1278;22548;-78
2023/02/22 19:18:22;;;;;;;77.80;43.50;;;;;;;4.05;76.45;98875.25;221431;1279;23277;-80
2023/02/22 19:23:25;;;;;;;80.00;42.60;;;;;;;4.01;76.66;98879.45;221467;1275;24751;-80
2023/02/22 19:28:32;;;;;;;83.30;41.60;;;;;;;4.00;76.75;98877.10;221480;1259;24222;-79
2023/02/22 19:33:35;;;;;;;77.00;41.50;;;;;;;3.97;76.66;98874.13;221395;1279;24433;-79
2023/02/22 19:38:38;;;;;;;74.60;39.90;;;;;;;3.93;76.77;98874.30;221410;1272;22602;-79
2023/02/22 19:43:43;;;;;;;77.10;39.70;;;;;;;3.88;76.87;98878.52;221528;1280;22543;-79
2023/02/22 19:48:47;;;;;;;93.00;48.20;;;;;;;3.87;76.78;98877.39;221425;1279;24686;-78
2023/02/22 19:53:50;;;;;;;105.30;53.60;;;;;;;3.89;76.77;98879.83;221271;1279;22705;-78
2023/02/22 19:58:55;;;;;;;108.00;54.30;;;;;;;3.93;76.95;98886.15;221531;1279;24273;-81
2023/02/22 20:04:04;;;;;;;100.40;52.10;;;;;;;3.95;76.89;98889.80;221601;1275;24170;-79
2023/02/22 20:09:12;;;;;;;107.40;51.90;;;;;;;3.94;76.71;98892.27;221366;1278;24295;-80
2023/02/22 20:14:18;;;;;;;121.10;60.40;;;;;;;3.90;76.59;98890.04;221439;1273;25453;-79
2023/02/22 20:19:21;;;;;;;113.90;56.00;;;;;;;3.85;76.63;98891.09;221345;1279;25246;-78
2023/02/22 20:24:24;;;;;;;102.70;51.90;;;;;;;3.79;76.72;98889.48;221728;1272;22542;-80
2023/02/22 20:29:30;;;;;;;99.80;48.70;;;;;;;3.77;76.92;98892.85;221641;1279;22561;-79
2023/02/22 20:34:35;;;;;;;92.00;42.70;;;;;;;3.73;76.96;98894.40;221414;1278;25355;-79
2023/02/22 20:39:38;;;;;;;81.20;42.60;;;;;;;3.67;76.84;98892.02;221117;1280;22578;-78
2023/02/22 20:44:44;;;;;;;87.60;47.10;;;;;;;3.56;76.67;98890.99;221476;1278;24256;-79
2023/02/22 20:49:46;;;;;;;102.70;50.50;;;;;;;3.42;76.79;98896.43;221413;1278;25243;-80
2023/02/22 20:54:49;;;;;;;98.60;52.00;;;;;;;3.27;77.05;98893.13;221380;1276;22468;-80
2023/02/22 20:59:51;;;;;;;112.10;56.70;;;;;;;3.14;77.13;98896.32;221303;1278;22545;-80
2023/02/22 21:04:54;;;;;;;106.10;54.30;;;;;;;3.02;77.25;98893.11;221385;1279;22655;-79
2023/02/22 21:09:56;;;;;;;114.20;58.20;;;;;;;2.88;77.32;98888.24;221397;1275;22536;-78
2023/02/22 21:14:59;;;;;;;106.90;56.00;;;;;;;2.77;77.65;98884.40;221323;1275;25396;-78
2023/02/22 21:20:08;;;;;;;113.10;60.60;;;;;;;2.65;77.65;98880.43;221352;1278;22551;-78
2023/02/22 21:25:12;;;;;;;125.00;63.00;;;;;;;2.52;77.66;98880.38;221795;1273;25278;-78
2023/02/22 21:30:15;;;;;;;118.40;62.20;;;;;;;2.39;77.96;98876.77;221620;1278;24371;-80
2023/02/22 21:35:23;;;;;;;120.90;62.40;;;;;;;2.26;77.84;98875.52;221460;1279;25397;-79
2023/02/22 21:40:26;;;;;;;127.00;65.30;;;;;;;2.16;78.23;98874.53;221532;1278;25343;-78
2023/02/22 21:45:29;;;;;;;118.30;60.60;;;;;;;2.04;78.44;98868.35;221305;1278;22549;-79
2023/02/22 21:50:36;;;;;;;127.60;66.70;;;;;;;1.98;78.62;98867.71;221288;1265;25246;-78
2023/02/22 21:55:39;;;;;;;142.90;71.40;;;;;;;1.90;78.70;98868.57;221399;1278;22668;-79
2023/02/22 22:00:42;;;;;;;131.10;66.90;;;;;;;1.83;78.94;98872.50;221399;1278;22550;-79
2023/02/22 22:05:47;;;;;;;132.80;72.00;;;;;;;1.75;79.04;98864.42;221592;1278;24295;-79
2023/02/22 22:10:54;;;;;;;139.40;73.90;;;;;;;1.68;79.28;98863.11;221393;1276;25300;-78
2023/02/22 22:16:05;;;;;;;146.40;75.40;;;;;;;1.61;79.15;98863.09;221528;1279;22659;-79
2023/02/22 22:21:12;;;;;;;141.50;70.70;;;;;;;1.51;79.07;98859.00;221660;1279;22657;-78
2023/02/22 22:26:18;;;;;;;131.70;66.80;;;;;;;1.46;79.49;98861.43;221540;1278;24277;-78
2023/02/22 22:31:23;;;;;;;127.90;64.40;;;;;;;1.39;79.59;98854.52;221406;1279;25252;-78
2023/02/22 22:36:26;;;;;;;125.60;62.90;;;;;;;1.29;79.48;98851.19;221406;1278;22564;-77
2023/02/22 22:41:28;;;;;;;119.10;60.70;;;;;;;1.19;79.27;98845.83;221336;1279;22533;-79
2023/02/22 22:46:39;;;;;;;120.10;59.40;;;;;;;1.10;80.07;98842.77;221475;1278;22564;-79
2023/02/22 22:51:46;;;;;;;112.10;54.10;;;;;;;1.05;79.98;98848.85;221423;1279;25370;-78
2023/02/22 22:57:05;;;;;;;119.90;60.40;;;;;;;1.01;80.02;98850.22;221434;1279;22544;-79
2023/02/22 23:02:10;;;;;;;117.50;57.70;;;;;;;0.96;80.27;98850.77;221490;1279;22561;-78
2023/02/22 23:07:13;;;;;;;98.20;52.30;;;;;;;0.92;80.36;98856.17;221555;1279;22728;-78
2023/02/22 23:12:29;;;;;;;91.90;48.20;;;;;;;0.87;80.13;98858.29;221421;1278;202449;-78
2023/02/22 23:17:42;;;;;;;95.90;48.40;;;;;;;0.83;80.36;98860.74;221286;1279;22509;-79
2023/02/22 23:22:47;;;;;;;90.40;46.90;;;;;;;0.74;80.15;98863.19;221794;1279;22589;-77
2023/02/22 23:27:52;;;;;;;94.70;49.00;;;;;;;0.65;80.67;98864.82;221511;1276;22775;-77
2023/02/22 23:32:55;;;;;;;102.80;52.80;;;;;;;0.58;80.67;98862.20;221496;1278;22523;-78
2023/02/22 23:37:59;;;;;;;96.60;48.90;;;;;;;0.56;80.74;98861.41;221570;1278;22556;-78
2023/02/22 23:43:10;;;;;;;89.40;44.30;;;;;;;0.55;80.79;98859.73;221472;1267;25517;-79